createdAt,value
2022-08-16T00:02:21.912Z,3.90
2022-08-16T00:04:51.107Z,4.55
2022-08-16T00:07:18.193Z,3.50
2022-08-16T00:09:45.136Z,4.07
2022-08-16T00:12:12.016Z,4.05
2022-08-16T00:14:45.100Z,3.78
2022-08-16T00:17:19.252Z,4.10
2022-08-16T00:22:15.238Z,3.65
2022-08-16T00:24:44.702Z,3.70
2022-08-16T00:27:13.551Z,4.00
2022-08-16T00:29:40.698Z,4.30
2022-08-16T00:32:08.634Z,4.70
2022-08-16T00:34:44.781Z,3.72
2022-08-16T00:37:20.807Z,3.70
2022-08-16T00:39:56.931Z,3.50
2022-08-16T00:42:30.275Z,3.97
2022-08-16T00:45:15.811Z,3.67
2022-08-16T00:47:49.453Z,3.40
2022-08-16T00:50:20.266Z,3.38
2022-08-16T00:52:50.927Z,3.83
2022-08-16T00:55:20.536Z,4.03
2022-08-16T00:57:59.030Z,4.13
2022-08-16T01:00:28.797Z,3.42
2022-08-16T01:02:57.333Z,3.95
2022-08-16T01:05:25.330Z,3.90
2022-08-16T01:07:53.315Z,4.00
2022-08-16T01:10:32.416Z,3.40
2022-08-16T01:13:15.189Z,3.80
2022-08-16T01:15:47.761Z,3.55
2022-08-16T01:18:40.315Z,3.70
2022-08-16T01:21:33.474Z,3.47
2022-08-16T01:24:53.858Z,3.42
2022-08-16T01:27:34.431Z,3.20
2022-08-16T01:30:19.384Z,3.38
2022-08-16T01:33:01.224Z,3.75
2022-08-16T01:35:36.778Z,3.30
2022-08-16T01:38:22.490Z,3.20
2022-08-16T01:40:54.894Z,3.60
2022-08-16T01:43:21.894Z,3.55
2022-08-16T01:45:54.066Z,3.28
2022-08-16T01:48:27.434Z,3.47
2022-08-16T01:51:09.579Z,3.45
2022-08-16T01:53:43.438Z,3.90
2022-08-16T01:56:23.112Z,3.40
2022-08-16T01:58:50.549Z,3.30
2022-08-16T02:01:17.967Z,3.35
2022-08-16T02:03:44.369Z,3.65
2022-08-16T02:06:34.725Z,3.13
2022-08-16T02:09:05.562Z,3.17
2022-08-16T02:11:48.193Z,3.47
2022-08-16T02:14:21.452Z,3.13
2022-08-16T02:16:49.250Z,3.72
2022-08-16T02:19:18.135Z,3.33
2022-08-16T02:22:08.554Z,3.97
2022-08-16T02:24:42.073Z,3.72
2022-08-16T02:27:09.785Z,3.53
2022-08-16T02:29:36.198Z,3.80
2022-08-16T02:32:50.148Z,3.78
2022-08-16T02:34:50.215Z,3.30
2022-08-16T02:37:20.989Z,3.30
2022-08-16T02:39:47.621Z,3.60
2022-08-16T02:42:21.052Z,3.45
2022-08-16T02:44:47.429Z,3.65
2022-08-16T02:47:24.876Z,3.60
2022-08-16T02:49:58.907Z,3.22
2022-08-16T02:52:38.788Z,3.78
2022-08-16T02:55:06.249Z,2.92
2022-08-16T02:57:33.534Z,3.97
2022-08-16T03:00:03.803Z,3.25
2022-08-16T03:02:47.380Z,3.47
2022-08-16T03:05:23.047Z,3.42
2022-08-16T03:07:50.903Z,3.28
2022-08-16T03:10:19.474Z,3.20
2022-08-16T03:12:55.282Z,3.50
2022-08-16T03:15:22.243Z,3.25
2022-08-16T03:17:50.911Z,3.65
2022-08-16T03:20:20.670Z,3.85
2022-08-16T03:22:58.410Z,3.58
2022-08-16T03:25:24.851Z,3.35
2022-08-16T03:28:08.242Z,3.70
2022-08-16T03:30:35.944Z,3.53
2022-08-16T03:33:04.158Z,3.17
2022-08-16T03:35:33.772Z,3.50
2022-08-16T03:38:04.188Z,3.50
2022-08-16T03:40:33.881Z,4.22
2022-08-16T03:43:20.205Z,3.53
2022-08-16T03:45:48.160Z,3.60
2022-08-16T03:48:15.096Z,3.67
2022-08-16T03:50:59.912Z,3.70
2022-08-16T03:53:27.316Z,3.30
2022-08-16T03:56:07.208Z,3.25
2022-08-16T03:58:35.170Z,3.78
2022-08-16T04:01:04.270Z,3.83
2022-08-16T04:03:31.436Z,4.32
2022-08-16T04:05:57.942Z,3.88
2022-08-16T04:08:27.181Z,3.60
2022-08-16T04:10:55.220Z,3.50
2022-08-16T04:14:01.589Z,3.45
2022-08-16T04:16:26.429Z,4.07
2022-08-16T04:18:54.347Z,3.80
2022-08-16T04:21:29.845Z,3.53
2022-08-16T04:23:56.348Z,3.88
2022-08-16T04:26:22.744Z,3.40
2022-08-16T04:28:53.356Z,3.90
2022-08-16T04:31:21.359Z,3.20
2022-08-16T04:33:50.510Z,3.35
2022-08-16T04:36:20.038Z,3.80
2022-08-16T04:38:47.049Z,3.38
2022-08-16T04:41:17.653Z,3.50
2022-08-16T04:43:44.391Z,3.75
2022-08-16T04:46:32.044Z,3.72
2022-08-16T04:48:59.110Z,3.70
2022-08-16T04:51:26.364Z,3.83
2022-08-16T04:54:02.339Z,3.97
2022-08-16T04:56:29.873Z,3.90
2022-08-16T04:58:57.540Z,3.80
2022-08-16T05:01:24.327Z,3.55
2022-08-16T05:04:19.862Z,4.38
2022-08-16T05:06:46.413Z,3.75
2022-08-16T05:09:12.803Z,3.97
2022-08-16T05:11:39.287Z,3.90
2022-08-16T05:14:07.259Z,4.18
2022-08-16T05:16:33.879Z,4.07
2022-08-16T05:19:02.153Z,4.18
2022-08-16T05:21:38.528Z,4.10
2022-08-16T05:24:07.400Z,4.75
2022-08-16T05:26:37.542Z,4.30
2022-08-16T05:29:10.995Z,6.10
2022-08-16T05:31:47.951Z,6.47
2022-08-16T05:34:21.332Z,5.90
2022-08-16T05:36:51.332Z,4.80
2022-08-16T05:39:18.674Z,4.70
2022-08-16T05:41:46.972Z,4.70
2022-08-16T05:44:22.534Z,6.47
2022-08-16T05:46:53.292Z,6.15
2022-08-16T05:49:22.381Z,7.18
2022-08-16T05:51:49.586Z,5.82
2022-08-16T05:54:25.073Z,5.40
2022-08-16T05:56:53.119Z,6.93
2022-08-16T05:59:19.852Z,7.18
2022-08-16T06:01:50.699Z,6.57
2022-08-16T06:04:35.167Z,6.78
2022-08-16T06:07:08.761Z,6.15
2022-08-16T06:09:42.946Z,7.10
2022-08-16T06:12:26.889Z,6.68
2022-08-16T06:17:25.209Z,6.45
2022-08-16T06:20:09.515Z,6.88
2022-08-16T06:22:39.470Z,6.60
2022-08-16T06:25:06.394Z,7.25
2022-08-16T06:27:39.658Z,7.07
2022-08-16T06:30:10.204Z,6.80
2022-08-16T06:32:42.934Z,6.88
2022-08-16T06:35:15.678Z,6.72
2022-08-16T06:37:47.547Z,6.85
2022-08-16T06:40:17.852Z,7.32
2022-08-16T06:42:53.950Z,7.40
2022-08-16T06:45:22.654Z,6.40
2022-08-16T06:47:53.071Z,6.53
2022-08-16T06:50:22.075Z,6.22
2022-08-16T06:53:00.596Z,7.13
2022-08-16T06:55:33.509Z,6.43
2022-08-16T06:58:01.473Z,7.05
2022-08-16T07:00:28.216Z,6.85
2022-08-16T07:02:55.040Z,6.78
2022-08-16T07:05:27.388Z,6.72
2022-08-16T07:08:11.506Z,7.35
2022-08-16T07:10:38.664Z,7.55
2022-08-16T07:13:08.540Z,6.20
2022-08-16T07:15:50.458Z,7.13
2022-08-16T07:18:21.362Z,7.22
2022-08-16T07:20:53.402Z,8.77
2022-08-16T07:23:21.640Z,8.20
2022-08-16T07:26:04.999Z,7.78
2022-08-16T07:28:31.403Z,5.97
2022-08-16T07:30:59.811Z,6.07
2022-08-16T07:33:52.395Z,6.90
2022-08-16T07:36:14.434Z,9.15
2022-08-16T07:38:48.637Z,7.13
2022-08-16T07:41:16.404Z,8.15
2022-08-16T07:43:47.535Z,6.70
2022-08-16T07:46:38.629Z,7.30
2022-08-16T07:49:04.641Z,7.20
2022-08-16T07:51:37.773Z,7.25
2022-08-16T07:54:09.367Z,7.75
2022-08-16T07:56:36.965Z,7.18
2022-08-16T07:59:05.355Z,7.28
2022-08-16T08:01:32.118Z,6.80
2022-08-16T08:04:00.971Z,6.05
2022-08-16T08:06:32.482Z,7.13
2022-08-16T08:09:03.800Z,7.93
2022-08-16T08:11:31.110Z,6.60
2022-08-16T08:14:03.166Z,7.18
2022-08-16T08:16:32.256Z,7.28
2022-08-16T08:19:07.117Z,6.20
2022-08-16T08:21:59.510Z,6.10
2022-08-16T08:24:32.077Z,6.63
2022-08-16T08:27:08.392Z,5.10
2022-08-16T08:29:37.554Z,5.07
2022-08-16T08:32:51.150Z,6.10
2022-08-16T08:35:03.096Z,5.20
2022-08-16T08:37:54.573Z,5.38
2022-08-16T08:40:18.583Z,5.38
2022-08-16T08:42:49.630Z,5.43
2022-08-16T08:45:43.166Z,6.10
2022-08-16T08:48:06.129Z,5.22
2022-08-16T08:50:33.431Z,4.85
2022-08-16T08:53:01.487Z,4.93
2022-08-16T08:55:28.607Z,4.40
2022-08-16T08:57:57.461Z,6.25
2022-08-16T09:00:30.234Z,4.97
2022-08-16T09:02:57.267Z,4.97
2022-08-16T09:05:26.171Z,5.43
2022-08-16T09:08:05.805Z,4.93
2022-08-16T09:10:33.757Z,4.93
2022-08-16T09:13:00.666Z,5.00
2022-08-16T09:15:32.931Z,4.72
2022-08-16T09:18:01.107Z,4.43
2022-08-16T09:20:59.014Z,5.07
2022-08-16T09:23:28.186Z,5.25
2022-08-16T09:25:55.352Z,3.90
2022-08-16T09:29:13.831Z,3.85
2022-08-16T09:31:08.282Z,4.75
2022-08-16T09:33:39.381Z,4.20
2022-08-16T09:36:07.440Z,4.47
2022-08-16T09:38:39.348Z,4.32
2022-08-16T09:41:14.514Z,3.90
2022-08-16T09:43:58.215Z,4.18
2022-08-16T09:46:45.373Z,4.25
2022-08-16T09:49:14.214Z,4.15
2022-08-16T09:51:42.271Z,4.07
2022-08-16T09:54:10.630Z,3.65
2022-08-16T09:56:52.081Z,4.32
2022-08-16T09:59:20.904Z,4.18
2022-08-16T10:01:48.704Z,4.30
2022-08-16T10:04:31.143Z,3.50
2022-08-16T10:09:44.991Z,4.18
2022-08-16T10:12:42.456Z,3.58
2022-08-16T10:15:15.448Z,3.67
2022-08-16T10:17:43.103Z,3.40
2022-08-16T10:20:11.417Z,3.28
2022-08-16T10:22:44.913Z,2.90
2022-08-16T10:25:11.347Z,3.60
2022-08-16T10:28:27.970Z,3.33
2022-08-16T10:30:44.487Z,3.20
2022-08-16T10:33:13.516Z,3.70
2022-08-16T10:35:46.547Z,3.03
2022-08-16T10:38:27.223Z,3.17
2022-08-16T10:40:54.591Z,3.30
2022-08-16T10:43:21.572Z,2.90
2022-08-16T10:46:00.281Z,3.03
2022-08-16T10:48:28.997Z,3.58
2022-08-16T10:50:59.985Z,2.63
2022-08-16T10:53:32.762Z,2.83
2022-08-16T10:56:01.567Z,3.20
2022-08-16T10:58:33.934Z,3.25
2022-08-16T11:01:25.041Z,3.08
2022-08-16T11:03:54.104Z,3.17
2022-08-16T11:06:27.935Z,3.58
2022-08-16T11:14:29.125Z,2.83
2022-08-16T11:17:10.392Z,2.67
2022-08-16T11:20:00.741Z,2.83
2022-08-16T11:22:41.969Z,2.67
2022-08-16T11:25:12.754Z,3.20
2022-08-16T11:27:42.818Z,2.50
2022-08-16T11:30:19.841Z,2.83
2022-08-16T11:32:46.891Z,2.65
2022-08-16T11:35:17.856Z,2.83
2022-08-16T11:38:46.411Z,2.90
2022-08-16T11:41:01.877Z,2.78
2022-08-16T11:43:34.454Z,2.65
2022-08-16T11:46:44.101Z,2.53
2022-08-16T11:48:51.623Z,2.20
2022-08-16T11:51:18.030Z,2.22
2022-08-16T11:53:44.930Z,2.20
2022-08-16T11:56:11.563Z,2.20
2022-08-16T11:58:41.348Z,2.85
2022-08-16T12:01:07.943Z,2.50
2022-08-16T12:03:37.307Z,2.40
2022-08-16T12:06:24.541Z,2.40
2022-08-16T12:08:57.320Z,2.95
2022-08-16T12:11:27.522Z,2.67
2022-08-16T12:13:57.755Z,2.38
2022-08-16T12:16:24.752Z,2.63
2022-08-16T12:18:58.120Z,2.63
2022-08-16T12:21:24.726Z,2.40
2022-08-16T12:24:03.379Z,2.83
2022-08-16T12:26:29.795Z,2.50
2022-08-16T12:28:56.663Z,2.53
2022-08-16T12:31:24.039Z,2.53
2022-08-16T12:33:50.826Z,2.60
2022-08-16T12:36:21.399Z,2.30
2022-08-16T12:38:48.914Z,2.53
2022-08-16T12:41:19.083Z,2.08
2022-08-16T12:43:51.975Z,2.20
2022-08-16T12:46:18.723Z,1.80
2022-08-16T12:49:00.138Z,2.20
2022-08-16T12:51:59.577Z,1.90
2022-08-16T12:54:21.983Z,2.10
2022-08-16T12:56:50.523Z,2.00
2022-08-16T12:59:20.356Z,2.20
2022-08-16T13:01:47.696Z,2.30
2022-08-16T13:04:21.001Z,1.90
2022-08-16T13:06:52.513Z,2.22
2022-08-16T13:09:28.973Z,2.13
2022-08-16T13:12:01.426Z,2.40
2022-08-16T13:14:34.871Z,1.85
2022-08-16T13:17:03.936Z,2.33
2022-08-16T13:20:03.397Z,1.92
2022-08-16T13:22:20.814Z,2.10
2022-08-16T13:24:47.236Z,2.22
2022-08-16T13:27:13.882Z,2.50
2022-08-16T13:29:43.616Z,1.90
2022-08-16T13:32:39.945Z,2.45
2022-08-16T13:34:57.563Z,2.10
2022-08-16T13:37:23.979Z,2.22
2022-08-16T13:39:52.569Z,2.38
2022-08-16T13:42:20.311Z,2.47
2022-08-16T13:44:55.882Z,2.22
2022-08-16T13:47:22.542Z,1.98
2022-08-16T13:49:51.257Z,2.03
2022-08-16T13:52:18.313Z,1.73
2022-08-16T13:54:45.014Z,2.10
2022-08-16T13:57:11.931Z,1.77
2022-08-16T13:59:38.865Z,2.20
2022-08-16T14:02:07.819Z,1.98
2022-08-16T14:04:37.351Z,2.30
2022-08-16T14:07:06.562Z,2.10
2022-08-16T14:09:36.411Z,2.33
2022-08-16T14:12:09.603Z,1.90
2022-08-16T14:14:43.837Z,2.10
2022-08-16T14:17:10.375Z,1.80
2022-08-16T14:19:36.773Z,2.10
2022-08-16T14:22:31.410Z,1.88
2022-08-16T14:24:59.322Z,2.08
2022-08-16T14:27:27.748Z,2.22
2022-08-16T14:29:55.003Z,2.50
2022-08-16T14:32:33.523Z,2.40
2022-08-16T14:35:04.000Z,2.40
2022-08-16T14:37:31.105Z,2.22
2022-08-16T14:39:58.792Z,2.20
2022-08-16T14:42:26.446Z,2.13
2022-08-16T14:44:54.235Z,2.00
2022-08-16T14:47:22.111Z,2.00
2022-08-16T14:49:49.133Z,2.08
2022-08-16T14:52:44.367Z,2.65
2022-08-16T14:55:07.427Z,2.00
2022-08-16T14:57:34.085Z,2.03
2022-08-16T15:00:06.132Z,2.08
2022-08-16T15:02:34.530Z,2.47
2022-08-16T15:05:04.242Z,2.10
2022-08-16T15:07:35.013Z,1.98
2022-08-16T15:10:02.379Z,2.47
2022-08-16T15:12:34.224Z,1.95
2022-08-16T15:15:12.395Z,2.05
2022-08-16T15:17:41.271Z,2.50
2022-08-16T15:20:08.672Z,2.30
2022-08-16T15:22:38.633Z,2.15
2022-08-16T15:25:11.302Z,2.20
2022-08-16T15:27:41.966Z,2.20
2022-08-16T15:30:57.818Z,2.08
2022-08-16T15:33:03.647Z,2.33
2022-08-16T15:35:31.446Z,2.35
2022-08-16T15:38:00.859Z,2.30
2022-08-16T15:40:35.190Z,1.80
2022-08-16T15:43:02.314Z,2.20
2022-08-16T15:45:47.748Z,2.28
2022-08-16T15:48:29.145Z,1.85
2022-08-16T15:50:58.284Z,1.75
2022-08-16T15:53:31.313Z,2.10
2022-08-16T15:55:59.403Z,1.80
2022-08-16T15:58:34.513Z,1.90
2022-08-16T16:01:02.286Z,1.95
2022-08-16T16:03:34.602Z,2.08
2022-08-16T16:06:02.354Z,1.92
2022-08-16T16:08:29.026Z,2.03
2022-08-16T16:10:58.702Z,1.83
2022-08-16T16:13:25.810Z,2.00
2022-08-16T16:15:56.845Z,1.70
2022-08-16T16:18:25.924Z,1.75
2022-08-16T16:20:59.066Z,2.08
2022-08-16T16:23:30.917Z,2.10
2022-08-16T16:25:58.786Z,2.10
2022-08-16T16:29:05.228Z,2.00
2022-08-16T16:31:17.302Z,1.92
2022-08-16T16:33:47.677Z,2.00
2022-08-16T16:36:19.231Z,1.90
2022-08-16T16:38:48.806Z,2.30
2022-08-16T16:41:20.492Z,1.98
2022-08-16T16:43:50.313Z,2.10
2022-08-16T16:46:40.470Z,1.83
2022-08-16T16:49:09.148Z,2.13
2022-08-16T16:51:40.576Z,1.90
2022-08-16T16:54:09.196Z,2.00
2022-08-16T16:56:37.726Z,1.90
2022-08-16T16:59:07.539Z,2.20
2022-08-16T17:01:41.184Z,2.28
2022-08-16T17:04:23.829Z,2.90
2022-08-16T17:06:57.953Z,2.28
2022-08-16T17:09:24.702Z,1.98
2022-08-16T17:11:55.404Z,2.55
2022-08-16T17:14:33.457Z,2.30
2022-08-16T17:17:08.921Z,1.67
2022-08-16T17:19:40.145Z,2.13
2022-08-16T17:22:14.195Z,2.30
2022-08-16T17:24:44.761Z,2.50
2022-08-16T17:27:11.658Z,2.50
2022-08-16T17:29:46.096Z,2.30
2022-08-16T17:32:34.020Z,2.08
2022-08-16T17:35:11.018Z,2.20
2022-08-16T17:37:48.777Z,2.20
2022-08-16T17:40:23.326Z,2.30
2022-08-16T17:42:53.598Z,2.40
2022-08-16T17:45:20.634Z,2.58
2022-08-16T17:47:47.136Z,2.30
2022-08-16T17:50:13.542Z,2.47
2022-08-16T17:52:49.189Z,2.20
2022-08-16T17:55:22.382Z,2.83
2022-08-16T17:57:48.759Z,2.53
2022-08-16T18:00:19.769Z,2.95
2022-08-16T18:02:47.063Z,6.40
2022-08-16T18:05:16.132Z,5.32
2022-08-16T18:07:43.093Z,4.70
2022-08-16T18:10:10.903Z,3.90
2022-08-16T18:12:51.084Z,4.47
2022-08-16T18:15:23.299Z,6.10
2022-08-16T18:17:52.094Z,4.75
2022-08-16T18:20:39.083Z,3.58
2022-08-16T18:23:09.238Z,3.97
2022-08-16T18:25:42.390Z,3.00
2022-08-16T18:28:09.120Z,2.60
2022-08-16T18:30:35.546Z,2.17
2022-08-16T18:33:01.957Z,3.08
2022-08-16T18:35:28.376Z,2.83
2022-08-16T18:37:54.782Z,3.03
2022-08-16T18:40:21.437Z,2.38
2022-08-16T18:42:59.793Z,4.43
2022-08-16T18:45:35.488Z,4.10
2022-08-16T18:48:04.651Z,3.63
2022-08-16T18:50:59.386Z,4.43
2022-08-16T18:53:19.400Z,4.38
2022-08-16T18:55:47.235Z,2.60
2022-08-16T18:58:14.280Z,3.70
2022-08-16T19:00:55.980Z,3.53
2022-08-16T19:03:26.767Z,3.20
2022-08-16T19:06:14.218Z,2.63
2022-08-16T19:08:42.154Z,3.83
2022-08-16T19:11:19.813Z,3.53
2022-08-16T19:13:46.423Z,3.90
2022-08-16T19:16:14.196Z,3.65
2022-08-16T19:18:40.974Z,2.78
2022-08-16T19:21:08.509Z,3.40
2022-08-16T19:23:37.293Z,3.00
2022-08-16T19:26:10.828Z,2.88
2022-08-16T19:28:51.119Z,3.20
2022-08-16T19:31:27.847Z,3.20
2022-08-16T19:33:56.279Z,3.25
2022-08-16T19:36:37.126Z,3.42
2022-08-16T19:39:10.517Z,3.20
2022-08-16T19:41:39.677Z,3.33
2022-08-16T19:44:07.152Z,3.28
2022-08-16T19:46:34.256Z,3.03
2022-08-16T19:49:00.623Z,2.60
2022-08-16T19:51:27.407Z,3.10
2022-08-16T19:53:53.793Z,2.55
2022-08-16T19:56:22.357Z,2.83
2022-08-16T19:59:16.436Z,3.05
2022-08-16T20:01:41.186Z,3.33
2022-08-16T20:04:11.878Z,3.17
2022-08-16T20:06:39.011Z,3.10
2022-08-16T20:09:05.851Z,2.78
2022-08-16T20:11:32.262Z,3.08
2022-08-16T20:13:59.215Z,2.70
2022-08-16T20:16:25.640Z,2.60
2022-08-16T20:18:52.005Z,2.72
2022-08-16T20:21:19.124Z,2.22
2022-08-16T20:23:45.676Z,2.60
2022-08-16T20:26:12.226Z,2.72
2022-08-16T20:28:52.536Z,2.40
2022-08-16T20:31:19.921Z,2.35
2022-08-16T20:33:46.481Z,2.60
2022-08-16T20:36:16.353Z,2.47
2022-08-16T20:38:46.482Z,2.70
2022-08-16T20:41:12.836Z,2.53
2022-08-16T20:43:39.195Z,2.60
2022-08-16T20:46:05.589Z,2.72
2022-08-16T20:48:31.949Z,2.47
2022-08-16T20:50:58.388Z,4.18
2022-08-16T20:53:24.749Z,4.43
2022-08-16T20:55:51.149Z,3.58
2022-08-16T20:58:17.522Z,3.00
2022-08-16T21:00:45.314Z,3.20
2022-08-16T21:03:13.191Z,3.10
2022-08-16T21:05:39.674Z,2.85
2022-08-16T21:08:29.375Z,3.00
2022-08-16T21:10:52.605Z,2.60
2022-08-16T21:13:20.690Z,2.20
2022-08-16T21:15:47.107Z,2.38
2022-08-16T21:18:13.543Z,2.50
2022-08-16T21:20:39.946Z,2.60
2022-08-16T21:23:08.638Z,2.70
2022-08-16T21:25:36.300Z,2.50
2022-08-16T21:28:41.348Z,2.72
2022-08-16T21:30:52.507Z,2.60
2022-08-16T21:33:19.643Z,2.40
2022-08-16T21:35:47.479Z,2.30
2022-08-16T21:38:29.403Z,2.47
2022-08-16T21:40:57.240Z,2.20
2022-08-16T21:43:24.152Z,2.72
2022-08-16T21:45:54.922Z,2.58
2022-08-16T21:48:32.650Z,2.55
2022-08-16T21:51:09.085Z,2.80
2022-08-16T21:53:36.408Z,2.13
2022-08-16T21:56:05.173Z,2.30
2022-08-16T21:58:32.098Z,2.63
2022-08-16T22:00:59.123Z,2.58
2022-08-16T22:03:25.570Z,2.40
2022-08-16T22:06:11.022Z,2.38
2022-08-16T22:08:48.125Z,2.60
2022-08-16T22:11:17.026Z,2.40
2022-08-16T22:13:43.398Z,2.70
2022-08-16T22:18:44.327Z,2.60
2022-08-16T22:21:19.132Z,2.60
2022-08-16T22:23:45.494Z,2.42
2022-08-16T22:26:30.039Z,2.33
2022-08-16T22:28:58.348Z,2.88
2022-08-16T22:31:25.302Z,2.40
2022-08-16T22:33:51.674Z,2.25
2022-08-16T22:36:18.211Z,2.33
2022-08-16T22:38:55.527Z,2.53
2022-08-16T22:41:23.600Z,2.72
2022-08-16T22:43:50.114Z,2.55
2022-08-16T22:46:16.476Z,2.50
2022-08-16T22:48:43.006Z,2.40
2022-08-16T22:51:10.004Z,2.50
2022-08-16T22:53:37.311Z,2.30
2022-08-16T22:56:04.311Z,2.58
2022-08-16T22:58:36.573Z,2.70
2022-08-16T23:01:07.572Z,2.40
2022-08-16T23:03:34.000Z,2.50
2022-08-16T23:06:00.743Z,2.60
2022-08-16T23:08:38.001Z,2.53
2022-08-16T23:11:12.171Z,2.50
2022-08-16T23:13:50.710Z,2.60
2022-08-16T23:16:21.505Z,2.83
2022-08-16T23:18:49.210Z,2.38
2022-08-16T23:21:16.751Z,2.47
2022-08-16T23:23:43.213Z,2.53
2022-08-16T23:26:46.316Z,2.75
2022-08-16T23:28:56.345Z,2.78
2022-08-16T23:31:22.706Z,2.83
2022-08-16T23:33:49.107Z,2.35
2022-08-16T23:36:15.612Z,2.70
2022-08-16T23:38:42.869Z,2.63
2022-08-16T23:41:12.248Z,2.50
2022-08-16T23:43:43.641Z,2.95
2022-08-16T23:46:14.921Z,2.40
2022-08-16T23:49:44.973Z,2.58
2022-08-16T23:51:28.759Z,2.63
2022-08-16T23:53:55.589Z,3.10
2022-08-16T23:56:21.974Z,2.60
2022-08-16T23:58:54.358Z,2.60
